Time;durP1;ratioP1;P1;durP2;ratioP2;P2;SDS_P1;SDS_P2;PMS_P1;PMS_P2;Temp;Humidity;BMP_temperature;BMP_pressure;BME280_temperature;BME280_humidity;BME280_pressure;Samples;Min_cycle;Max_cycle;Signal;HPM_P1;HPM_P2
2024/03/15 00:01:22;;;;;;;;;;;;;;;4.22;100.00;100535.25;5064494;28;19924;-65
2024/03/15 00:03:48;;;;;;;;;;;;;;;4.23;100.00;100542.19;5062430;28;19928;-65
2024/03/15 00:06:13;;;;;;;;;;;;;;;4.20;100.00;100538.97;5059255;28;20499;-64
2024/03/15 00:08:39;;;;;;;;;;;;;;;4.18;100.00;100538.25;5059363;28;19948;-66
2024/03/15 00:11:04;;;;;;;;;;;;;;;4.18;100.00;100527.72;5063769;28;20402;-65
2024/03/15 00:13:30;;;;;;;;;;;;;;;4.18;100.00;100525.09;5058256;28;19955;-64
2024/03/15 00:15:55;;;;;;;;;;;;;;;4.18;100.00;100530.34;5060882;28;19931;-67
2024/03/15 00:18:20;;;;;;;;;;;;;;;4.16;100.00;100517.31;5067113;28;20291;-66
2024/03/15 00:20:46;;;;;;;;;;;;;;;4.14;100.00;100523.69;5061682;28;19930;-65
2024/03/15 00:23:11;;;;;;;;;;;;;;;4.15;100.00;100527.97;5061706;28;20399;-69
2024/03/15 00:25:38;;;;;;;;;;;;;;;4.15;100.00;100514.81;5064208;28;20011;-64
2024/03/15 00:28:03;;;;;;;;;;;;;;;4.17;100.00;100523.41;5064919;28;19986;-67
2024/03/15 00:30:28;;;;;;;;;;;;;;;4.13;100.00;100514.09;5062530;28;20371;-65
2024/03/15 00:32:54;;;;;;;;;;;;;;;4.16;100.00;100517.31;5062286;28;20498;-67
2024/03/15 00:35:22;;;;;;;;;;;;;;;4.20;100.00;100507.34;5066471;28;19992;-65
2024/03/15 00:37:47;;;;;;;;;;;;;;;4.19;100.00;100510.94;5067082;28;20325;-66
2024/03/15 00:40:12;;;;;;;;;;;;;;;4.21;100.00;100515.13;5058473;28;19932;-67
2024/03/15 00:42:38;;;;;;;;;;;;;;;4.19;100.00;100511.78;5067049;28;19928;-65
2024/03/15 00:45:03;;;;;;;;;;;;;;;4.19;100.00;100513.59;5062542;28;19929;-65
2024/03/15 00:47:28;;;;;;;;;;;;;;;4.21;100.00;100509.84;5068696;28;19973;-67
2024/03/15 00:49:54;;;;;;;;;;;;;;;4.22;100.00;100500.16;5064082;28;19932;-66
2024/03/15 00:52:20;;;;;;;;;;;;;;;4.20;100.00;100500.28;5058073;28;19921;-65
2024/03/15 00:54:47;;;;;;;;;;;;;;;4.19;100.00;100503.88;5064525;28;19921;-68
2024/03/15 00:57:13;;;;;;;;;;;;;;;4.21;100.00;100498.47;5060805;28;20015;-68
2024/03/15 00:59:39;;;;;;;;;;;;;;;4.21;100.00;100504.56;5058181;28;20414;-66
2024/03/15 01:02:05;;;;;;;;;;;;;;;4.27;100.00;100504.06;5063789;28;19940;-66
2024/03/15 01:04:30;;;;;;;;;;;;;;;4.28;100.00;100500.47;5065444;28;19978;-65
2024/03/15 01:06:56;;;;;;;;;;;;;;;4.27;100.00;100497.94;5062278;28;19935;-65
2024/03/15 01:09:21;;;;;;;;;;;;;;;4.25;100.00;100506.00;5062356;28;19928;-69
2024/03/15 01:11:47;;;;;;;;;;;;;;;4.26;100.00;100491.00;5061620;28;19924;-65
2024/03/15 01:14:13;;;;;;;;;;;;;;;4.30;100.00;100493.25;5065713;28;19986;-68
2024/03/15 01:16:38;;;;;;;;;;;;;;;4.32;100.00;100490.50;5070774;28;20367;-68
2024/03/15 01:19:04;;;;;;;;;;;;;;;4.32;100.00;100491.31;5065553;28;19943;-66
2024/03/15 01:21:29;;;;;;;;;;;;;;;4.31;100.00;100486.19;5070317;28;19958;-67
2024/03/15 01:23:55;;;;;;;;;;;;;;;4.35;100.00;100492.91;5067590;28;20283;-67
2024/03/15 01:26:20;;;;;;;;;;;;;;;4.37;100.00;100493.59;5070105;28;19932;-65
2024/03/15 01:28:46;;;;;;;;;;;;;;;4.43;100.00;100487.81;5061320;28;20007;-65
2024/03/15 01:31:11;;;;;;;;;;;;;;;4.44;100.00;100481.56;5061983;28;19920;-63
2024/03/15 01:33:37;;;;;;;;;;;;;;;4.50;100.00;100496.84;5061321;28;20030;-68
2024/03/15 01:36:02;;;;;;;;;;;;;;;4.54;100.00;100489.53;5062467;28;19925;-64
2024/03/15 01:38:29;;;;;;;;;;;;;;;4.56;100.00;100498.13;5057741;28;19920;-67
2024/03/15 01:40:54;;;;;;;;;;;;;;;4.57;100.00;100491.88;5058479;28;19924;-67
2024/03/15 01:43:20;;;;;;;;;;;;;;;4.59;100.00;100490.78;5064164;28;19924;-65
2024/03/15 01:45:45;;;;;;;;;;;;;;;4.63;100.00;100497.50;5056024;28;20015;-66
2024/03/15 01:48:11;;;;;;;;;;;;;;;4.65;100.00;100487.66;5057548;28;20375;-67
2024/03/15 01:50:38;;;;;;;;;;;;;;;4.65;100.00;100486.81;5064159;28;19920;-67
2024/03/15 01:53:04;;;;;;;;;;;;;;;4.68;100.00;100485.72;5061603;28;19924;-67
2024/03/15 01:55:32;;;;;;;;;;;;;;;4.72;100.00;100492.41;5061845;28;20051;-66
2024/03/15 01:57:58;;;;;;;;;;;;;;;4.75;100.00;100492.97;5069389;28;19959;-67
2024/03/15 02:00:24;;;;;;;;;;;;;;;4.77;100.00;100492.84;5062916;28;19925;-66
2024/03/15 02:02:49;;;;;;;;;;;;;;;4.71;100.00;100496.00;5059018;28;19924;-67
2024/03/15 02:05:15;;;;;;;;;;;;;;;4.71;100.00;100486.28;5060263;28;19974;-67
2024/03/15 02:07:40;;;;;;;;;;;;;;;4.75;100.00;100486.84;5061475;28;20222;-67
2024/03/15 02:10:13;;;;;;;;;;;;;;;4.74;100.00;100490.47;5061655;28;20031;-68
2024/03/15 02:12:39;;;;;;;;;;;;;;;4.76;100.00;100483.25;5061361;28;20411;-66
2024/03/15 02:15:06;;;;;;;;;;;;;;;4.75;100.00;100481.56;5068873;28;19963;-67
2024/03/15 02:17:34;;;;;;;;;;;;;;;4.77;100.00;100487.56;5067660;28;19935;-64
2024/03/15 02:20:00;;;;;;;;;;;;;;;4.79;100.00;100485.63;5052124;28;19921;-65
2024/03/15 02:22:25;;;;;;;;;;;;;;;4.79;100.00;100485.63;5056141;28;19924;-64
2024/03/15 02:24:51;;;;;;;;;;;;;;;4.82;100.00;100485.34;5065803;28;19936;-65
2024/03/15 02:27:17;;;;;;;;;;;;;;;4.84;100.00;100480.78;5058956;28;19924;-68
2024/03/15 02:29:42;;;;;;;;;;;;;;;4.83;100.00;100479.09;5063093;28;19927;-65
2024/03/15 02:32:08;;;;;;;;;;;;;;;4.82;100.00;100473.00;5072395;28;19964;-64
2024/03/15 02:34:36;;;;;;;;;;;;;;;4.83;100.00;100479.09;5065919;28;19921;-64
2024/03/15 02:37:07;;;;;;;;;;;;;;;4.83;100.00;100485.22;5063747;28;19947;-68
2024/03/15 02:39:32;;;;;;;;;;;;;;;4.83;100.00;100474.66;5063447;28;20019;-67
2024/03/15 02:41:57;;;;;;;;;;;;;;;4.86;100.00;100477.03;5042550;28;20370;-66
2024/03/15 02:44:23;;;;;;;;;;;;;;;4.83;100.00;100473.84;5063024;28;19940;-66
2024/03/15 02:46:48;;;;;;;;;;;;;;;4.84;100.00;100471.06;5061872;28;19928;-65
2024/03/15 02:49:14;;;;;;;;;;;;;;;4.82;100.00;100473.00;5054990;28;20020;-65
2024/03/15 02:51:39;;;;;;;;;;;;;;;4.80;100.00;100476.75;5064124;28;19927;-67
2024/03/15 02:54:08;;;;;;;;;;;;;;;4.82;100.00;100477.44;5063192;28;19931;-65
2024/03/15 02:56:33;;;;;;;;;;;;;;;4.84;100.00;100478.13;5063238;28;20011;-66
2024/03/15 02:58:58;;;;;;;;;;;;;;;4.85;100.00;100493.00;5060484;28;20030;-64
2024/03/15 03:01:25;;;;;;;;;;;;;;;4.90;100.00;100475.78;5060879;28;19957;-67
2024/03/15 03:03:50;;;;;;;;;;;;;;;4.93;100.00;100482.63;5059240;28;19925;-66
2024/03/15 03:06:15;;;;;;;;;;;;;;;4.92;100.00;100473.06;5065863;28;19932;-65
2024/03/15 03:08:41;;;;;;;;;;;;;;;4.94;100.00;100489.59;5062697;28;19925;-66
2024/03/15 03:11:11;;;;;;;;;;;;;;;4.91;100.00;100481.91;5064563;28;20008;-64
2024/03/15 03:13:36;;;;;;;;;;;;;;;4.90;100.00;100477.59;5068170;28;19928;-67
2024/03/15 03:16:02;;;;;;;;;;;;;;;4.92;100.00;100484.44;5063505;28;19920;-67
2024/03/15 03:18:27;;;;;;;;;;;;;;;4.91;100.00;100477.47;5062653;28;20071;-66
2024/03/15 03:20:53;;;;;;;;;;;;;;;4.91;100.00;100472.19;5072068;28;19929;-66
2024/03/15 03:23:19;;;;;;;;;;;;;;;4.90;100.00;100477.59;5061480;28;19925;-65
2024/03/15 03:25:47;;;;;;;;;;;;;;;4.89;100.00;100475.94;5074029;28;19931;-69
2024/03/15 03:28:13;;;;;;;;;;;;;;;4.89;100.00;100483.84;5059799;28;19924;-69
2024/03/15 03:30:38;;;;;;;;;;;;;;;4.89;100.00;100473.28;5065387;28;20049;-64
2024/03/15 03:33:03;;;;;;;;;;;;;;;4.90;100.00;100483.72;5063737;28;19921;-66
2024/03/15 03:35:28;;;;;;;;;;;;;;;4.92;100.00;100473.06;5067123;28;19931;-68
2024/03/15 03:37:54;;;;;;;;;;;;;;;4.87;100.00;100475.22;5072588;28;19960;-66
2024/03/15 03:40:24;;;;;;;;;;;;;;;4.86;100.00;100468.28;5072937;28;19993;-68
2024/03/15 03:42:50;;;;;;;;;;;;;;;4.85;100.00;100471.88;5062907;28;20042;-66
2024/03/15 03:45:22;;;;;;;;;;;;;;;4.85;100.00;100472.72;5057303;28;19921;-63
2024/03/15 03:47:49;;;;;;;;;;;;;;;4.85;100.00;100472.72;5061892;28;19966;-66
2024/03/15 03:50:17;;;;;;;;;;;;;;;4.86;100.00;100468.28;5069585;28;19925;-65
2024/03/15 03:52:43;;;;;;;;;;;;;;;4.87;100.00;100467.31;5064468;28;19947;-67
2024/03/15 03:55:08;;;;;;;;;;;;;;;4.87;100.00;100470.78;5063443;28;20431;-67
2024/03/15 03:57:34;;;;;;;;;;;;;;;4.88;100.00;100471.63;5062564;28;20019;-67
2024/03/15 04:00:07;;;;;;;;;;;;;;;4.85;100.00;100472.72;5064964;28;20291;-65
2024/03/15 04:02:32;;;;;;;;;;;;;;;4.87;100.00;100469.94;5056304;28;19971;-65
2024/03/15 04:04:58;;;;;;;;;;;;;;;4.84;100.00;100465.78;5071349;28;19928;-67
2024/03/15 04:07:30;;;;;;;;;;;;;;;4.83;100.00;100465.91;5057885;28;20027;-65
2024/03/15 04:09:55;;;;;;;;;;;;;;;4.80;100.00;100463.53;5064295;28;20472;-66
2024/03/15 04:12:21;;;;;;;;;;;;;;;4.78;100.00;100462.84;5057935;28;20012;-66
2024/03/15 04:14:49;;;;;;;;;;;;;;;4.77;100.00;100462.00;5063823;28;19932;-68
2024/03/15 04:17:15;;;;;;;;;;;;;;;4.79;100.00;100468.00;5062830;28;19970;-64
2024/03/15 04:19:42;;;;;;;;;;;;;;;4.83;100.00;100458.00;5065284;28;19927;-66
2024/03/15 04:22:08;;;;;;;;;;;;;;;4.80;100.00;100460.91;5064557;28;19980;-65
2024/03/15 04:24:35;;;;;;;;;;;;;;;4.82;100.00;100461.59;5063642;28;20329;-66
2024/03/15 04:27:01;;;;;;;;;;;;;;;4.85;100.00;100456.91;5062679;28;19928;-68
2024/03/15 04:29:26;;;;;;;;;;;;;;;4.84;100.00;100460.50;5070777;28;19920;-65
2024/03/15 04:31:51;;;;;;;;;;;;;;;4.87;100.00;100452.31;5064270;28;19930;-65
2024/03/15 04:34:17;;;;;;;;;;;;;;;4.85;100.00;100456.06;5062909;28;19932;-66
2024/03/15 04:36:43;;;;;;;;;;;;;;;4.88;100.00;100459.25;5061875;28;20023;-69
2024/03/15 04:39:10;;;;;;;;;;;;;;;4.91;100.00;100463.44;5059812;28;20023;-70
2024/03/15 04:41:36;;;;;;;;;;;;;;;4.92;100.00;100460.69;5063377;28;19924;-69
2024/03/15 04:44:02;;;;;;;;;;;;;;;4.95;100.00;100472.78;5063522;28;19924;-67
2024/03/15 04:46:27;;;;;;;;;;;;;;;4.97;100.00;100470.84;5067266;28;20022;-67
2024/03/15 04:48:52;;;;;;;;;;;;;;;4.93;100.00;100465.00;5039148;28;19971;-66
2024/03/15 04:51:18;;;;;;;;;;;;;;;4.94;100.00;100466.66;5070647;28;19921;-67
2024/03/15 04:53:43;;;;;;;;;;;;;;;4.94;100.00;100473.75;5064322;28;19994;-70
2024/03/15 04:56:09;;;;;;;;;;;;;;;4.99;100.00;100471.53;5068188;28;19928;-67
2024/03/15 04:58:34;;;;;;;;;;;;;;;4.99;100.00;100466.28;5063562;28;19924;-68
2024/03/15 05:01:00;;;;;;;;;;;;;;;4.95;100.00;100472.78;5055922;28;20906;-66
2024/03/15 05:03:27;;;;;;;;;;;;;;;4.97;100.00;100478.75;5071091;28;19925;-66
2024/03/15 05:05:52;;;;;;;;;;;;;;;5.00;100.00;100486.41;5055937;28;19921;-67
2024/03/15 05:08:18;;;;;;;;;;;;;;;5.00;100.00;100475.84;5059339;28;19931;-67
2024/03/15 05:10:43;;;;;;;;;;;;;;;5.00;100.00;100475.84;5059223;28;19925;-66
2024/03/15 05:13:08;;;;;;;;;;;;;;;4.99;100.00;100482.09;5061540;28;19929;-69
2024/03/15 05:15:34;;;;;;;;;;;;;;;5.00;100.00;100478.50;5064932;28;19946;-66
2024/03/15 05:17:59;;;;;;;;;;;;;;;5.00;100.00;100481.13;5058136;28;19968;-64
2024/03/15 05:20:25;;;;;;;;;;;;;;;5.03;100.00;100483.50;5060131;28;19960;-65
2024/03/15 05:22:50;;;;;;;;;;;;;;;5.02;100.00;100475.72;5066150;28;19985;-63
2024/03/15 05:25:18;;;;;;;;;;;;;;;5.03;100.00;100477.38;5060056;28;19931;-64
2024/03/15 05:27:44;;;;;;;;;;;;;;;5.00;100.00;100475.84;5060237;28;20023;-64
2024/03/15 05:30:09;;;;;;;;;;;;;;;5.04;100.00;100482.53;5056935;28;20385;-65
2024/03/15 05:32:35;;;;;;;;;;;;;;;5.03;100.00;100483.50;5042705;28;19931;-64
2024/03/15 05:35:00;;;;;;;;;;;;;;;5.04;100.00;100487.81;5061699;28;19951;-66
2024/03/15 05:37:26;;;;;;;;;;;;;;;5.07;100.00;100484.91;5064044;28;19967;-67
2024/03/15 05:39:51;;;;;;;;;;;;;;;5.09;100.00;100485.59;5065361;28;19920;-65
2024/03/15 05:42:17;;;;;;;;;;;;;;;5.10;100.00;100487.28;5068091;28;19935;-66
2024/03/15 05:44:45;;;;;;;;;;;;;;;5.11;100.00;100481.03;5060173;28;19921;-65
2024/03/15 05:47:12;;;;;;;;;;;;;;;5.14;100.00;100488.66;5068432;28;19924;-68
2024/03/15 05:49:40;;;;;;;;;;;;;;;5.15;100.00;100478.94;5063945;28;19921;-69
2024/03/15 05:52:10;;;;;;;;;;;;;;;5.16;100.00;100481.44;5061291;28;19990;-67
2024/03/15 05:54:35;;;;;;;;;;;;;;;5.17;100.00;100482.28;5066380;28;19920;-67
2024/03/15 05:57:01;;;;;;;;;;;;;;;5.13;100.00;100481.72;5062501;28;20016;-66
2024/03/15 05:59:26;;;;;;;;;;;;;;;5.19;100.00;100485.63;5069871;28;19928;-65
2024/03/15 06:01:51;;;;;;;;;;;;;;;5.21;100.00;100473.97;5068015;28;19942;-73
2024/03/15 06:04:17;;;;;;;;;;;;;;;5.24;100.00;100479.00;5070883;28;19925;-73
2024/03/15 06:06:42;;;;;;;;;;;;;;;5.25;100.00;100475.38;5068437;28;19925;-71
2024/03/15 06:09:09;;;;;;;;;;;;;;;5.28;100.00;100480.38;5067541;28;19929;-69
2024/03/15 06:11:37;;;;;;;;;;;;;;;5.29;100.00;100481.22;5066136;28;19954;-70
2024/03/15 06:14:02;;;;;;;;;;;;;;;5.34;100.00;100480.81;5070687;28;19977;-67
2024/03/15 06:16:28;;;;;;;;;;;;;;;5.34;100.00;100481.63;5065666;28;19921;-67
2024/03/15 06:18:54;;;;;;;;;;;;;;;5.37;100.00;100488.44;5080611;28;19920;-66
2024/03/15 06:21:19;;;;;;;;;;;;;;;5.37;100.00;100496.38;5069567;28;19935;-69
2024/03/15 06:23:45;;;;;;;;;;;;;;;5.37;100.00;100488.44;5070162;28;19924;-67
2024/03/15 06:26:11;;;;;;;;;;;;;;;5.38;100.00;100490.13;5070994;28;20450;-67
2024/03/15 06:28:37;;;;;;;;;;;;;;;5.37;100.00;100499.84;5071740;28;19924;-67
2024/03/15 06:31:06;;;;;;;;;;;;;;;5.34;100.00;100489.56;5071757;28;19931;-68
2024/03/15 06:33:33;;;;;;;;;;;;;;;5.37;100.00;100493.72;5065489;28;19930;-65
2024/03/15 06:36:00;;;;;;;;;;;;;;;5.41;100.00;100495.97;5070535;28;19948;-67
2024/03/15 06:38:51;;;;;;;;;;;;;;;5.45;100.00;100497.34;5066568;28;19920;-66
2024/03/15 06:44:19;;;;;;;;;;;;;;;5.46;100.00;100495.56;5066778;28;20011;-66
2024/03/15 06:49:44;;;;;;;;;;;;;;;5.48;100.00;100497.09;5074119;28;19921;-68
2024/03/15 06:52:34;;;;;;;;;;;;;;;5.51;100.00;100502.13;5056012;28;19924;-70
2024/03/15 06:55:07;;;;;;;;;;;;;;;5.53;100.00;100505.47;5066464;28;20345;-66
2024/03/15 06:57:33;;;;;;;;;;;;;;;5.55;100.00;100502.69;5071227;28;20347;-67
2024/03/15 06:59:58;;;;;;;;;;;;;;;5.52;100.00;100500.31;5071462;28;19976;-67
2024/03/15 07:02:24;;;;;;;;;;;;;;;5.52;100.00;100502.97;5069265;28;19975;-66
2024/03/15 07:04:53;;;;;;;;;;;;;;;5.52;100.00;100500.31;5067173;28;19982;-65
2024/03/15 07:07:18;;;;;;;;;;;;;;;5.53;100.00;100504.63;5072288;28;20030;-66
2024/03/15 07:09:44;;;;;;;;;;;;;;;5.55;100.00;100497.41;5070708;28;20027;-67
2024/03/15 07:12:14;;;;;;;;;;;;;;;5.57;100.00;100506.03;5071180;28;19931;-68
2024/03/15 07:14:40;;;;;;;;;;;;;;;5.59;100.00;100510.19;5068641;28;20046;-69
2024/03/15 07:17:09;;;;;;;;;;;;;;;5.62;100.00;100514.38;5072027;28;20021;-69
2024/03/15 07:19:34;;;;;;;;;;;;;;;5.63;100.00;100510.75;5070527;28;19971;-68
2024/03/15 07:21:59;;;;;;;;;;;;;;;5.68;100.00;100519.09;5055093;28;19933;-66
2024/03/15 07:24:26;;;;;;;;;;;;;;;5.72;100.00;100519.66;5070957;28;19925;-66
2024/03/15 07:26:51;;;;;;;;;;;;;;;5.73;100.00;100522.16;5063040;28;20023;-67
2024/03/15 07:29:17;;;;;;;;;;;;;;;5.75;100.00;100519.38;5070541;28;20007;-67
2024/03/15 07:31:42;;;;;;;;;;;;;;;5.78;100.00;100514.69;5056409;28;19977;-71
2024/03/15 07:34:07;;;;;;;;;;;;;;;5.82;100.00;100521.34;5070462;28;19924;-68
2024/03/15 07:36:33;;;;;;;;;;;;;;;5.87;100.00;100529.69;5073764;28;20406;-66
2024/03/15 07:38:59;;;;;;;;;;;;;;;5.93;100.00;100532.78;5053486;28;20391;-67
2024/03/15 07:41:28;;;;;;;;;;;;;;;5.90;100.00;100529.44;5073148;28;19936;-67
2024/03/15 07:43:54;;;;;;;;;;;;;;;5.90;100.00;100532.09;5068364;28;20312;-70
2024/03/15 07:46:19;;;;;;;;;;;;;;;5.87;100.00;100534.97;5069666;28;19931;-69
2024/03/15 07:48:45;;;;;;;;;;;;;;;5.88;100.00;100544.59;5065059;28;20450;-69
2024/03/15 07:51:10;;;;;;;;;;;;;;;5.92;100.00;100536.41;5067612;28;19931;-71
2024/03/15 07:53:36;;;;;;;;;;;;;;;5.95;100.00;100536.13;5067871;28;19993;-69
2024/03/15 07:56:03;;;;;;;;;;;;;;;5.96;100.00;100541.28;5069848;28;20035;-71
2024/03/15 07:58:29;;;;;;;;;;;;;;;6.00;100.00;100552.41;5071839;28;19951;-71
2024/03/15 08:00:56;;;;;;;;;;;;;;;6.00;100.00;100544.47;5065996;28;19931;-70
2024/03/15 08:03:22;;;;;;;;;;;;;;;5.99;100.00;100542.81;5068991;28;19924;-71
2024/03/15 08:05:48;;;;;;;;;;;;;;;5.97;100.00;100555.31;5074072;28;19928;-69
2024/03/15 08:08:14;;;;;;;;;;;;;;;5.94;100.00;100552.97;5070352;28;20549;-72
2024/03/15 08:10:39;;;;;;;;;;;;;;;5.95;100.00;100544.88;5071583;28;20031;-70
2024/03/15 08:13:05;;;;;;;;;;;;;;;5.96;100.00;100548.38;5072980;28;19971;-67
2024/03/15 08:15:32;;;;;;;;;;;;;;;5.99;100.00;100554.22;5074102;28;19924;-70
2024/03/15 08:18:00;;;;;;;;;;;;;;;6.02;100.00;100545.16;5073843;28;20311;-67
2024/03/15 08:20:26;;;;;;;;;;;;;;;6.05;100.00;100552.81;5070783;28;19925;-68
2024/03/15 08:22:53;;;;;;;;;;;;;;;6.06;100.00;100550.03;5072978;28;19921;-71
2024/03/15 08:25:23;;;;;;;;;;;;;;;6.06;100.00;100560.59;5071069;28;19931;-71
2024/03/15 08:27:48;;;;;;;;;;;;;;;6.01;100.00;100557.53;5069602;28;19925;-71
2024/03/15 08:30:13;;;;;;;;;;;;;;;6.01;100.00;100562.00;5074326;28;19938;-69
2024/03/15 08:32:39;;;;;;;;;;;;;;;5.99;100.00;100570.06;5074987;28;20015;-70
2024/03/15 08:35:05;;;;;;;;;;;;;;;5.97;100.00;100571.19;5072149;28;19921;-71
2024/03/15 08:37:31;;;;;;;;;;;;;;;5.99;100.00;100571.88;5073094;28;19925;-71
2024/03/15 08:39:56;;;;;;;;;;;;;;;5.97;100.00;100565.91;5072448;28;19956;-72
2024/03/15 08:42:22;;;;;;;;;;;;;;;5.95;100.00;100571.31;5067932;28;19924;-76
2024/03/15 08:44:48;;;;;;;;;;;;;;;5.95;100.00;100570.50;5069358;28;19924;-71
2024/03/15 08:47:15;;;;;;;;;;;;;;;5.98;100.00;100578.13;5064566;28;19946;-71
2024/03/15 08:49:41;;;;;;;;;;;;;;;6.01;100.00;100573.41;5066170;28;20375;-72
2024/03/15 08:52:06;;;;;;;;;;;;;;;5.99;100.00;100579.81;5065696;28;19920;-71
2024/03/15 08:54:34;;;;;;;;;;;;;;;5.97;100.00;100581.75;5069617;28;19931;-71
2024/03/15 08:57:01;;;;;;;;;;;;;;;6.00;100.00;100582.31;5069565;28;19924;-68
2024/03/15 08:59:27;;;;;;;;;;;;;;;5.99;100.00;100585.94;5067277;28;19921;-71
2024/03/15 09:01:53;;;;;;;;;;;;;;;6.05;100.00;100589.81;5063158;28;19924;-68
2024/03/15 09:04:20;;;;;;;;;;;;;;;6.07;100.00;100587.88;5067191;28;20014;-68
2024/03/15 09:06:47;;;;;;;;;;;;;;;6.12;100.00;100590.97;5075321;28;19925;-67
2024/03/15 09:09:14;;;;;;;;;;;;;;;6.15;100.00;100585.41;5074857;28;19973;-69
2024/03/15 09:11:40;;;;;;;;;;;;;;;6.15;100.00;100601.28;5071731;28;20349;-68
2024/03/15 09:14:10;;;;;;;;;;;;;;;6.10;100.00;100599.03;5068417;28;19928;-72
2024/03/15 09:16:37;;;;;;;;;;;;;;;6.13;100.00;100588.19;5071648;28;19925;-70
2024/03/15 09:19:03;;;;;;;;;;;;;;;6.17;100.00;100601.97;5067103;28;19948;-69
2024/03/15 09:21:30;;;;;;;;;;;;;;;6.20;100.00;100599.03;5070086;28;20359;-70
2024/03/15 09:23:55;;;;;;;;;;;;;;;6.14;100.00;100605.72;5068165;28;20345;-69
2024/03/15 09:26:20;;;;;;;;;;;;;;;6.16;100.00;100602.94;5071758;28;20002;-71
2024/03/15 09:28:49;;;;;;;;;;;;;;;6.18;100.00;100603.63;5066270;28;19924;-68
2024/03/15 09:31:19;;;;;;;;;;;;;;;6.21;100.00;100612.13;5069796;28;21385;-67
2024/03/15 09:33:47;;;;;;;;;;;;;;;6.26;100.00;100600.28;5069095;28;19931;-68
2024/03/15 09:36:16;;;;;;;;;;;;;;;6.30;100.00;100605.16;5069609;28;19925;-71
2024/03/15 09:38:45;;;;;;;;;;;;;;;6.32;100.00;100605.84;5061938;28;19925;-68
2024/03/15 09:41:12;;;;;;;;;;;;;;;6.18;100.00;100591.25;5064972;28;19929;-68
2024/03/15 09:43:39;;;;;;;;;;;;;;;6.37;100.00;100616.88;5052754;28;19921;-70
2024/03/15 09:46:06;;;;;;;;;;;;;;;6.41;100.00;100620.06;5067977;28;19920;-67
2024/03/15 09:48:35;;;;;;;;;;;;;;;6.48;100.00;100624.66;5065668;28;19997;-69
2024/03/15 09:51:03;;;;;;;;;;;;;;;6.51;100.00;100618.25;5058099;28;19991;-70
2024/03/15 09:53:29;;;;;;;;;;;;;;;6.48;100.00;100624.66;5065793;28;20015;-70
2024/03/15 09:55:56;;;;;;;;;;;;;;;6.44;100.00;100633.84;5058523;28;20437;-70
2024/03/15 09:58:23;;;;;;;;;;;;;;;6.39;100.00;100630.78;5061727;28;19924;-67
2024/03/15 10:00:49;;;;;;;;;;;;;;;6.41;100.00;100628.84;5062414;28;19960;-72
2024/03/15 10:03:14;;;;;;;;;;;;;;;6.42;100.00;100635.81;5061304;28;19975;-72
2024/03/15 10:05:40;;;;;;;;;;;;;;;6.42;100.00;100630.50;5054759;28;19929;-74
2024/03/15 10:08:06;;;;;;;;;;;;;;;6.41;100.00;100634.13;5060602;28;19931;-73
2024/03/15 10:10:34;;;;;;;;;;;;;;;6.38;100.00;100639.72;5057667;28;20031;-69
2024/03/15 10:12:59;;;;;;;;;;;;;;;6.40;100.00;100635.13;5055163;28;20058;-70
2024/03/15 10:15:25;;;;;;;;;;;;;;;6.44;100.00;100633.03;5063696;28;19920;-73
2024/03/15 10:17:52;;;;;;;;;;;;;;;6.49;100.00;100638.72;5065373;28;20383;-69
2024/03/15 10:20:21;;;;;;;;;;;;;;;6.55;100.00;100634.69;5061000;28;19927;-73
2024/03/15 10:22:50;;;;;;;;;;;;;;;6.55;100.00;100639.97;5068119;28;19932;-70
2024/03/15 10:25:18;;;;;;;;;;;;;;;6.61;100.00;100644.69;5066990;28;19948;-71
2024/03/15 10:27:48;;;;;;;;;;;;;;;6.62;100.00;100641.91;5061369;28;19924;-71
2024/03/15 10:30:15;;;;;;;;;;;;;;;6.57;100.00;100651.25;5071244;28;19924;-69
2024/03/15 10:32:41;;;;;;;;;;;;;;;6.59;100.00;100654.59;5072835;28;19929;-69
2024/03/15 10:35:12;;;;;;;;;;;;;;;6.65;100.00;100656.66;5060671;28;19928;-69
2024/03/15 10:37:38;;;;;;;;;;;;;;;6.62;100.00;100656.94;5063084;28;19932;-71
2024/03/15 10:40:05;;;;;;;;;;;;;;;6.58;100.00;100658.22;5062740;28;19921;-71
2024/03/15 10:42:30;;;;;;;;;;;;;;;6.58;100.00;100661.69;5066300;28;19982;-66
2024/03/15 10:44:56;;;;;;;;;;;;;;;6.61;100.00;100665.88;5062851;28;19922;-68
2024/03/15 10:47:22;;;;;;;;;;;;;;;6.57;100.00;100662.66;5071139;28;19924;-73
2024/03/15 10:49:49;;;;;;;;;;;;;;;6.59;100.00;100667.81;5066211;28;19920;-69
2024/03/15 10:52:15;;;;;;;;;;;;;;;6.48;100.00;100672.28;5066505;28;19920;-71
2024/03/15 10:54:41;;;;;;;;;;;;;;;6.44;100.00;100670.88;5046381;28;19925;-67
2024/03/15 10:57:08;;;;;;;;;;;;;;;6.44;100.00;100670.88;5067539;28;20367;-70
2024/03/15 10:59:34;;;;;;;;;;;;;;;6.47;100.00;100665.31;5066744;28;19927;-72
2024/03/15 11:02:00;;;;;;;;;;;;;;;6.58;100.00;100674.91;5063131;28;19932;-69
2024/03/15 11:04:26;;;;;;;;;;;;;;;6.60;100.00;100665.03;5061490;28;19920;-69
2024/03/15 11:06:51;;;;;;;;;;;;;;;6.56;100.00;100668.09;5061081;28;20001;-69
2024/03/15 11:09:20;;;;;;;;;;;;;;;6.59;100.00;100670.47;5069721;28;20226;-67
2024/03/15 11:11:55;;;;;;;;;;;;;;;6.60;100.00;100664.19;5060588;28;20015;-69
2024/03/15 11:14:24;;;;;;;;;;;;;;;6.65;100.00;100677.84;5069055;28;19920;-65
2024/03/15 11:16:56;;;;;;;;;;;;;;;6.67;100.00;100675.91;5056288;28;20016;-70
2024/03/15 11:19:22;;;;;;;;;;;;;;;6.68;100.00;100674.94;5064954;28;19925;-71
2024/03/15 11:21:47;;;;;;;;;;;;;;;6.64;100.00;100671.72;5059194;28;19947;-68
2024/03/15 11:24:16;;;;;;;;;;;;;;;6.60;100.00;100677.44;5069804;28;20023;-74
2024/03/15 11:26:41;;;;;;;;;;;;;;;6.63;100.00;100677.16;5060132;28;19924;-69
2024/03/15 11:29:16;;;;;;;;;;;;;;;6.61;100.00;100681.75;5064796;28;19925;-67
2024/03/15 11:31:44;;;;;;;;;;;;;;;6.69;100.00;100673.97;5073895;28;19928;-68
2024/03/15 11:34:10;;;;;;;;;;;;;;;6.77;100.00;100680.22;5070611;28;19967;-69
2024/03/15 11:36:35;;;;;;;;;;;;;;;6.77;100.00;100676.75;5068040;28;19968;-71
2024/03/15 11:39:00;;;;;;;;;;;;;;;6.72;100.00;100686.91;5058920;28;20398;-72
2024/03/15 11:41:26;;;;;;;;;;;;;;;6.69;100.00;100687.19;5065226;28;19925;-70
2024/03/15 11:43:54;;;;;;;;;;;;;;;6.72;100.00;100684.28;5059973;28;19967;-71
2024/03/15 11:46:20;;;;;;;;;;;;;;;6.74;100.00;100687.59;5073919;28;19925;-71
2024/03/15 11:48:46;;;;;;;;;;;;;;;6.75;100.00;100681.34;5071982;28;19932;-70
2024/03/15 11:51:11;;;;;;;;;;;;;;;6.81;100.00;100683.41;5068195;28;19924;-72
2024/03/15 11:53:37;;;;;;;;;;;;;;;6.88;100.00;100694.28;5067204;28;19963;-71
2024/03/15 11:56:04;;;;;;;;;;;;;;;6.77;100.00;100684.69;5070387;28;20013;-71
2024/03/15 11:58:29;;;;;;;;;;;;;;;6.83;100.00;100694.69;5068089;28;19927;-69
2024/03/15 12:00:55;;;;;;;;;;;;;;;6.79;100.00;100701.25;5070269;28;19921;-72
2024/03/15 12:03:21;;;;;;;;;;;;;;;6.73;100.00;100701.81;5069332;28;19921;-71
2024/03/15 12:05:46;;;;;;;;;;;;;;;6.70;100.00;100696.81;5070716;28;19967;-72
2024/03/15 12:08:12;;;;;;;;;;;;;;;6.68;100.00;100701.41;5064018;28;19924;-71
2024/03/15 12:10:38;;;;;;;;;;;;;;;6.66;100.00;100698.06;5063974;28;19932;-74
2024/03/15 12:13:12;;;;;;;;;;;;;;;6.66;100.00;100706.00;5067774;28;19920;-70
2024/03/15 12:15:38;;;;;;;;;;;;;;;6.66;100.00;100713.94;5072886;28;19963;-71
2024/03/15 12:18:04;;;;;;;;;;;;;;;6.68;100.00;100712.81;5075573;28;19977;-69
2024/03/15 12:20:30;;;;;;;;;;;;;;;6.69;100.00;100713.66;5062329;28;19929;-70
2024/03/15 12:22:56;;;;;;;;;;;;;;;6.71;100.00;100714.34;5067017;28;20011;-71
2024/03/15 12:25:22;;;;;;;;;;;;;;;6.69;100.00;100711.03;5068260;28;19928;-71
2024/03/15 12:27:47;;;;;;;;;;;;;;;6.72;100.00;100716.88;5061652;28;19931;-71
2024/03/15 12:30:14;;;;;;;;;;;;;;;6.77;100.00;100703.22;5069433;28;19920;-68
2024/03/15 12:32:40;;;;;;;;;;;;;;;6.70;100.00;100712.69;5067593;28;20015;-69
2024/03/15 12:35:05;;;;;;;;;;;;;;;6.72;100.00;100716.88;5069040;28;20385;-70
2024/03/15 12:37:31;;;;;;;;;;;;;;;6.73;100.00;100715.88;5068208;28;20015;-69